createdAt,value
2023-01-11T00:01:06.075Z,93913.06
2023-01-11T00:03:34.280Z,93907.25
2023-01-11T00:06:02.168Z,93909.66
2023-01-11T00:08:30.043Z,93916.16
2023-01-11T00:10:57.901Z,93910.88
2023-01-11T00:13:27.217Z,93910.75
2023-01-11T00:15:55.410Z,93916.28
2023-01-11T00:18:23.596Z,93911.44
2023-01-11T00:20:51.440Z,93921.16
2023-01-11T00:23:19.305Z,93918.88
2023-01-11T00:25:47.231Z,93924.16
2023-01-11T00:28:15.369Z,93932.91
2023-01-11T00:30:44.605Z,93933.56
2023-01-11T00:33:13.035Z,93934.13
2023-01-11T00:35:40.983Z,93935.09
2023-01-11T00:38:08.810Z,93927.25
2023-01-11T00:40:36.690Z,93930.91
2023-01-11T00:43:21.769Z,93931.97
2023-01-11T00:46:08.138Z,93933.31
2023-01-11T00:48:36.021Z,93931.19
2023-01-11T00:51:04.061Z,93932.78
2023-01-11T00:53:31.956Z,93932.38
2023-01-11T00:55:59.951Z,93929.16
2023-01-11T00:58:27.885Z,93940.88
2023-01-11T01:00:57.113Z,93941.44
2023-01-11T01:03:25.036Z,93946.69
2023-01-11T01:05:55.988Z,93944.38
2023-01-11T01:08:23.855Z,93937.50
2023-01-11T01:10:52.636Z,93934.13
2023-01-11T01:13:37.918Z,93941.28
2023-01-11T01:16:07.879Z,93944.13
2023-01-11T01:18:35.935Z,93941.81
2023-01-11T01:21:03.871Z,93939.41
2023-01-11T01:23:31.866Z,93946.16
2023-01-11T01:26:03.580Z,93945.22
2023-01-11T01:28:31.885Z,93954.50
2023-01-11T01:30:59.859Z,93948.03
2023-01-11T01:33:29.245Z,93955.84
2023-01-11T01:35:57.165Z,93957.19
2023-01-11T01:38:25.010Z,93953.81
2023-01-11T01:40:52.978Z,93947.34
2023-01-11T01:43:20.850Z,93959.31
2023-01-11T01:45:50.345Z,93958.53
2023-01-11T01:48:21.925Z,93956.63
2023-01-11T01:50:54.676Z,93966.91
2023-01-11T01:53:27.063Z,93962.97
2023-01-11T01:55:59.608Z,93959.22
2023-01-11T01:58:31.165Z,93955.97
2023-01-11T02:01:19.194Z,93960.94
2023-01-11T02:03:48.346Z,93961.38
2023-01-11T02:06:17.850Z,93971.63
2023-01-11T02:08:49.364Z,93965.13
2023-01-11T02:11:30.936Z,93964.19
2023-01-11T02:14:02.189Z,93974.28
2023-01-11T02:16:30.502Z,93972.13
2023-01-11T02:18:59.523Z,93967.78
2023-01-11T02:21:43.033Z,93997.22
2023-01-11T02:24:49.360Z,93991.56
2023-01-11T02:27:35.063Z,93997.88
2023-01-11T02:30:18.751Z,94008.41
2023-01-11T02:32:56.119Z,94012.59
2023-01-11T02:35:34.252Z,94019.06
2023-01-11T02:38:07.893Z,94023.25
2023-01-11T02:40:45.494Z,94015.16
2023-01-11T02:43:37.344Z,94024.75
2023-01-11T02:46:14.365Z,94030.41
2023-01-11T02:48:50.907Z,94032.84
2023-01-11T02:51:23.717Z,94037.97
2023-01-11T02:53:56.860Z,94032.28
2023-01-11T02:56:27.725Z,94031.91
2023-01-11T02:58:59.257Z,94040.78
2023-01-11T03:01:28.747Z,94037.97
2023-01-11T03:03:57.230Z,94043.22
2023-01-11T03:06:29.758Z,94025.69
2023-01-11T03:09:16.424Z,94028.78
2023-01-11T03:12:20.307Z,94034.63
2023-01-11T03:14:59.604Z,94039.56
2023-01-11T03:17:43.636Z,94036.25
2023-01-11T03:20:21.848Z,94035.16
2023-01-11T03:23:13.727Z,94038.81
2023-01-11T03:25:51.623Z,94027.75
2023-01-11T03:28:30.133Z,94031.97
2023-01-11T03:31:03.855Z,94037.97
2023-01-11T03:33:39.724Z,94034.88
2023-01-11T03:36:18.424Z,94034.75
2023-01-11T03:38:52.685Z,94024.63
2023-01-11T03:41:25.472Z,94044.06
2023-01-11T03:43:57.269Z,94041.59
2023-01-11T03:46:30.078Z,94032.56
2023-01-11T03:49:04.043Z,94023.81
2023-01-11T03:51:35.702Z,94037.97
2023-01-11T03:54:07.737Z,94043.63
2023-01-11T03:56:42.487Z,94043.75
2023-01-11T03:59:10.416Z,94046.59
2023-01-11T04:01:38.979Z,94047.84
2023-01-11T04:04:08.273Z,94056.19
2023-01-11T04:06:38.512Z,94056.59
2023-01-11T04:09:06.858Z,94061.97
2023-01-11T04:11:34.763Z,94060.38
2023-01-11T04:14:02.689Z,94051.72
2023-01-11T04:16:30.605Z,94054.97
2023-01-11T04:18:58.542Z,94065.38
2023-01-11T04:21:27.834Z,94068.59
2023-01-11T04:23:55.810Z,94069.81
2023-01-11T04:26:23.721Z,94077.66
2023-01-11T04:28:54.111Z,94079.25
2023-01-11T04:31:22.315Z,94082.78
2023-01-11T04:33:50.235Z,94082.91
2023-01-11T04:36:18.638Z,94085.59
2023-01-11T04:38:47.930Z,94086.81
2023-01-11T04:41:33.523Z,94094.91
2023-01-11T04:44:01.449Z,94089.66
2023-01-11T04:46:29.350Z,94101.25
2023-01-11T04:48:57.423Z,94093.97
2023-01-11T04:51:25.287Z,94103.53
2023-01-11T04:53:54.798Z,94100.84
2023-01-11T04:56:22.820Z,94106.50
2023-01-11T04:58:50.761Z,94110.97
2023-01-11T05:01:20.193Z,94110.16
2023-01-11T05:03:48.349Z,94107.19
2023-01-11T05:06:16.967Z,94114.34
2023-01-11T05:08:50.338Z,94115.13
2023-01-11T05:11:19.955Z,94124.22
2023-01-11T05:13:48.078Z,94119.88
2023-01-11T05:16:18.992Z,94131.75
2023-01-11T05:18:49.346Z,94134.31
2023-01-11T05:21:19.180Z,94135.53
2023-01-11T05:23:47.978Z,94135.69
2023-01-11T05:26:18.779Z,94132.97
2023-01-11T05:28:48.190Z,94129.56
2023-01-11T05:31:16.942Z,94129.13
2023-01-11T05:33:45.397Z,94130.50
2023-01-11T05:36:15.358Z,94137.78
2023-01-11T05:38:43.409Z,94135.63
2023-01-11T05:41:11.929Z,94149.66
2023-01-11T05:44:00.518Z,94143.22
2023-01-11T05:46:29.036Z,94147.78
2023-01-11T05:48:59.152Z,94147.25
2023-01-11T05:51:27.351Z,94155.06
2023-01-11T05:53:55.266Z,94162.94
2023-01-11T05:56:23.529Z,94160.78
2023-01-11T05:58:52.617Z,94160.09
2023-01-11T06:01:23.244Z,94160.25
2023-01-11T06:03:53.137Z,94167.66
2023-01-11T06:06:21.998Z,94164.66
2023-01-11T06:08:50.101Z,94164.81
2023-01-11T06:11:18.528Z,94174.63
2023-01-11T06:13:46.439Z,94179.91
2023-01-11T06:16:17.153Z,94185.31
2023-01-11T06:18:47.257Z,94190.44
2023-01-11T06:21:17.814Z,94192.06
2023-01-11T06:23:47.356Z,94200.88
2023-01-11T06:26:17.601Z,94206.13
2023-01-11T06:28:45.917Z,94206.69
2023-01-11T06:31:16.959Z,94202.91
2023-01-11T06:33:45.822Z,94212.00
2023-01-11T06:36:14.682Z,94221.03
2023-01-11T06:38:44.829Z,94220.78
2023-01-11T06:41:13.873Z,94218.91
2023-01-11T06:43:42.908Z,94207.00
2023-01-11T06:46:15.366Z,94216.75
2023-01-11T06:48:43.399Z,94217.28
2023-01-11T06:51:12.173Z,94224.34
2023-01-11T06:53:40.939Z,94233.50
2023-01-11T06:56:13.756Z,94224.59
2023-01-11T06:58:41.843Z,94235.13
2023-01-11T07:01:09.947Z,94231.38
2023-01-11T07:03:39.388Z,94225.44
2023-01-11T07:06:07.683Z,94246.91
2023-01-11T07:08:35.614Z,94250.00
2023-01-11T07:11:04.109Z,94268.38
2023-01-11T07:13:33.476Z,94264.59
2023-01-11T07:16:01.896Z,94261.59
2023-01-11T07:18:31.703Z,94270.00
2023-01-11T07:20:59.698Z,94277.28
2023-01-11T07:23:27.635Z,94269.97
2023-01-11T07:25:55.638Z,94266.72
2023-01-11T07:28:23.691Z,94272.84
2023-01-11T07:30:59.387Z,94269.56
2023-01-11T07:33:28.559Z,94271.34
2023-01-11T07:35:58.274Z,94285.13
2023-01-11T07:38:26.298Z,94286.75
2023-01-11T07:40:54.420Z,94278.41
2023-01-11T07:43:23.553Z,94286.00
2023-01-11T07:45:54.225Z,94292.19
2023-01-11T07:48:26.952Z,94295.00
2023-01-11T07:50:55.863Z,94288.91
2023-01-11T07:53:26.466Z,94316.78
2023-01-11T07:55:56.172Z,94311.34
2023-01-11T07:58:24.219Z,94319.38
2023-01-11T08:00:53.512Z,94313.25
2023-01-11T08:03:21.701Z,94325.06
2023-01-11T08:05:52.494Z,94325.84
2023-01-11T08:08:20.515Z,94327.59
2023-01-11T08:11:08.684Z,94337.03
2023-01-11T08:13:54.204Z,94324.00
2023-01-11T08:16:23.603Z,94341.59
2023-01-11T08:18:51.598Z,94347.56
2023-01-11T08:21:21.390Z,94353.91
2023-01-11T08:23:49.521Z,94349.09
2023-01-11T08:26:18.164Z,94361.00
2023-01-11T08:28:46.705Z,94369.84
2023-01-11T08:31:14.730Z,94376.72
2023-01-11T08:33:44.655Z,94369.69
2023-01-11T08:36:14.061Z,94371.44
2023-01-11T08:38:42.128Z,94364.00
2023-01-11T08:41:11.719Z,94373.31
2023-01-11T08:43:39.667Z,94382.28
2023-01-11T08:46:07.830Z,94384.97
2023-01-11T08:48:35.796Z,94379.81
2023-01-11T08:51:06.027Z,94391.97
2023-01-11T08:53:34.061Z,94376.94
2023-01-11T08:56:02.413Z,94400.66
2023-01-11T08:58:30.347Z,94392.53
2023-01-11T09:00:59.267Z,94407.97
2023-01-11T09:03:28.649Z,94400.13
2023-01-11T09:05:57.613Z,94403.09
2023-01-11T09:08:27.802Z,94380.13
2023-01-11T09:10:56.391Z,94404.06
2023-01-11T09:13:24.295Z,94407.03
2023-01-11T09:15:57.150Z,94399.59
2023-01-11T09:18:26.975Z,94406.13
2023-01-11T09:20:55.102Z,94401.75
2023-01-11T09:23:23.039Z,94402.81
2023-01-11T09:25:52.386Z,94401.47
2023-01-11T09:28:20.284Z,94409.28
2023-01-11T09:30:48.367Z,94408.06
2023-01-11T09:33:16.212Z,94404.72
2023-01-11T09:35:46.261Z,94398.91
2023-01-11T09:38:14.235Z,94400.00
2023-01-11T09:40:51.141Z,94403.25
2023-01-11T09:43:27.361Z,94407.59
2023-01-11T09:45:58.815Z,94408.16
2023-01-11T09:48:36.720Z,94387.84
2023-01-11T09:51:06.231Z,94398.78
2023-01-11T09:53:38.537Z,94408.16
2023-01-11T09:56:13.149Z,94401.50
2023-01-11T09:58:54.964Z,94412.59
2023-01-11T10:01:30.074Z,94415.56
2023-01-11T10:04:26.044Z,94412.75
2023-01-11T10:07:06.479Z,94416.66
2023-01-11T10:18:35.339Z,94419.91
2023-01-11T10:18:54.181Z,94421.75
2023-01-11T10:21:27.309Z,94413.06
2023-01-11T10:24:03.220Z,94416.31
2023-01-11T10:26:39.731Z,94424.00
2023-01-11T10:29:40.183Z,94429.00
2023-01-11T10:32:35.545Z,94418.47
2023-01-11T10:35:33.324Z,94417.22
2023-01-11T10:38:30.862Z,94410.22
2023-01-11T10:41:12.077Z,94410.72
2023-01-11T10:43:45.301Z,94414.38
2023-01-11T10:46:16.836Z,94399.78
2023-01-11T10:48:47.410Z,94400.63
2023-01-11T10:51:27.252Z,94413.63
2023-01-11T10:54:06.764Z,94405.53
2023-01-11T10:57:02.861Z,94412.91
2023-01-11T10:59:52.586Z,94406.56
2023-01-11T11:02:36.081Z,94404.63
2023-01-11T11:05:17.585Z,94386.03
2023-01-11T11:07:52.197Z,94402.69
2023-01-11T11:10:26.108Z,94391.97
2023-01-11T11:13:03.209Z,94390.97
2023-01-11T11:15:39.660Z,94392.97
2023-01-11T11:18:07.851Z,94398.94
2023-01-11T11:20:37.552Z,94394.84
2023-01-11T11:23:05.968Z,94409.06
2023-01-11T11:25:37.420Z,94406.22
2023-01-11T11:28:07.126Z,94414.41
2023-01-11T11:30:38.307Z,94403.38
2023-01-11T11:33:15.489Z,94408.78
2023-01-11T11:35:46.494Z,94400.25
2023-01-11T11:38:24.610Z,94418.44
2023-01-11T11:41:05.327Z,94426.56
2023-01-11T11:43:34.467Z,94416.25
2023-01-11T11:46:04.529Z,94420.16
2023-01-11T11:48:34.587Z,94410.78
2023-01-11T11:51:07.246Z,94419.81
2023-01-11T11:53:42.953Z,94412.63
2023-01-11T11:56:21.959Z,94422.09
2023-01-11T11:58:51.212Z,94423.19
2023-01-11T12:01:25.843Z,94418.34
2023-01-11T12:03:57.257Z,94415.50
2023-01-11T12:06:29.981Z,94426.88
2023-01-11T12:09:02.051Z,94430.84
2023-01-11T12:11:34.979Z,94425.41
2023-01-11T12:14:16.795Z,94420.31
2023-01-11T12:16:47.073Z,94429.44
2023-01-11T12:19:35.475Z,94434.75
2023-01-11T12:22:18.784Z,94433.06
2023-01-11T12:24:47.575Z,94439.84
2023-01-11T12:27:32.727Z,94438.53
2023-01-11T12:30:19.919Z,94442.56
2023-01-11T12:33:07.346Z,94427.88
2023-01-11T12:35:43.106Z,94435.34
2023-01-11T12:38:32.583Z,94437.06
2023-01-11T12:41:13.569Z,94441.28
2023-01-11T12:43:55.842Z,94444.13
2023-01-11T12:46:34.305Z,94434.09
2023-01-11T12:49:38.035Z,94428.84
2023-01-11T12:52:40.734Z,94441.56
2023-01-11T12:55:26.645Z,94438.44
2023-01-11T12:58:01.975Z,94444.69
2023-01-11T13:01:05.977Z,94439.94
2023-01-11T13:04:05.160Z,94448.31
2023-01-11T13:06:40.493Z,94453.47
2023-01-11T13:09:18.902Z,94453.19
2023-01-11T13:12:00.675Z,94449.69
2023-01-11T13:14:55.178Z,94448.47
2023-01-11T13:17:34.637Z,94458.59
2023-01-11T13:20:18.173Z,94461.03
2023-01-11T13:22:51.447Z,94461.56
2023-01-11T13:25:24.718Z,94466.97
2023-01-11T13:27:56.197Z,94451.53
2023-01-11T13:30:25.493Z,94465.63
2023-01-11T13:32:57.819Z,94473.22
2023-01-11T13:35:36.003Z,94474.84
2023-01-11T13:38:16.125Z,94476.31
2023-01-11T13:40:48.406Z,94472.13
2023-01-11T13:43:23.773Z,94478.34
2023-01-11T13:45:57.140Z,94480.25
2023-01-11T13:48:30.848Z,94476.88
2023-01-11T13:51:04.662Z,94478.22
2023-01-11T13:53:38.694Z,94473.22
2023-01-11T13:56:13.512Z,94474.59
2023-01-11T13:58:53.086Z,94476.72
2023-01-11T14:01:27.969Z,94481.88
2023-01-11T14:04:01.998Z,94485.38
2023-01-11T14:06:45.661Z,94482.84
2023-01-11T14:09:30.826Z,94483.38
2023-01-11T14:12:06.266Z,94490.97
2023-01-11T14:14:51.559Z,94464.72
2023-01-11T14:17:33.753Z,94486.25
2023-01-11T14:20:08.975Z,94483.22
2023-01-11T14:22:44.858Z,94480.25
2023-01-11T14:25:19.613Z,94488.81
2023-01-11T14:28:01.427Z,94489.06
2023-01-11T14:31:03.473Z,94496.25
2023-01-11T14:34:12.864Z,94491.50
2023-01-11T14:36:57.978Z,94501.53
2023-01-11T14:39:46.171Z,94507.34
2023-01-11T14:42:35.710Z,94517.75
2023-01-11T14:45:25.440Z,94510.59
2023-01-11T14:48:11.525Z,94509.47
2023-01-11T14:50:57.030Z,94515.88
2023-01-11T14:53:30.767Z,94514.78
2023-01-11T14:55:58.683Z,94518.72
2023-01-11T14:58:28.218Z,94514.22
2023-01-11T15:01:14.115Z,94520.59
2023-01-11T15:03:55.734Z,94521.25
2023-01-11T15:06:24.202Z,94523.41
2023-01-11T15:08:55.982Z,94528.97
2023-01-11T15:11:39.122Z,94531.25
2023-01-11T15:14:28.577Z,94536.69
2023-01-11T15:17:18.821Z,94534.66
2023-01-11T15:19:50.367Z,94540.34
2023-01-11T15:22:36.213Z,94544.56
2023-01-11T15:25:06.690Z,94540.38
2023-01-11T15:27:37.386Z,94544.44
2023-01-11T15:30:08.176Z,94549.72
2023-01-11T15:32:37.788Z,94535.50
2023-01-11T15:35:33.481Z,94545.50
2023-01-11T15:38:10.205Z,94541.28
2023-01-11T15:40:42.789Z,94543.59
2023-01-11T15:44:32.006Z,94536.81
2023-01-11T15:47:25.225Z,94537.38
2023-01-11T15:50:13.450Z,94542.50
2023-01-11T15:53:16.827Z,94544.78
2023-01-11T15:56:12.476Z,94534.69
2023-01-11T15:59:16.887Z,94564.19
2023-01-11T16:02:05.034Z,94562.41
2023-01-11T16:04:37.714Z,94556.19
2023-01-11T16:07:16.465Z,94555.34
2023-01-11T16:10:06.936Z,94566.59
2023-01-11T16:12:48.277Z,94572.16
2023-01-11T16:15:39.874Z,94567.53
2023-01-11T16:18:18.497Z,94558.84
2023-01-11T16:20:59.549Z,94580.63
2023-01-11T16:23:27.601Z,94576.16
2023-01-11T16:25:59.129Z,94577.25
2023-01-11T16:28:28.466Z,94579.84
2023-01-11T16:30:58.439Z,94569.25
2023-01-11T16:33:28.350Z,94585.53
2023-01-11T16:36:12.707Z,94588.16
2023-01-11T16:38:53.690Z,94585.41
2023-01-11T16:41:24.795Z,94592.66
2023-01-11T16:43:55.779Z,94593.97
2023-01-11T16:46:59.161Z,94597.91
2023-01-11T16:49:27.279Z,94600.72
2023-01-11T16:51:59.833Z,94596.66
2023-01-11T16:54:30.178Z,94615.09
2023-01-11T16:57:01.713Z,94601.31
2023-01-11T16:59:31.817Z,94597.78
2023-01-11T17:02:03.776Z,94606.31
2023-01-11T17:04:33.599Z,94620.34
2023-01-11T17:07:14.914Z,94617.22
2023-01-11T17:09:43.976Z,94615.28
2023-01-11T17:12:20.411Z,94617.66
2023-01-11T17:15:06.877Z,94604.63
2023-01-11T17:17:36.925Z,94607.22
2023-01-11T17:20:12.973Z,94623.84
2023-01-11T17:22:41.059Z,94613.34
2023-01-11T17:25:17.085Z,94626.63
2023-01-11T17:27:51.697Z,94626.84
2023-01-11T17:30:22.837Z,94630.44
2023-01-11T17:32:54.630Z,94628.28
2023-01-11T17:35:24.374Z,94630.34
2023-01-11T17:37:54.187Z,94622.09
2023-01-11T17:40:25.027Z,94624.22
2023-01-11T17:43:23.952Z,94644.56
2023-01-11T17:45:55.604Z,94642.56
2023-01-11T17:48:25.194Z,94629.47
2023-01-11T17:50:56.857Z,94631.53
2023-01-11T17:53:26.940Z,94637.13
2023-01-11T17:55:57.142Z,94639.06
2023-01-11T17:58:28.595Z,94635.72
2023-01-11T18:01:18.338Z,94640.88
2023-01-11T18:03:48.029Z,94641.59
2023-01-11T18:06:24.337Z,94633.50
2023-01-11T18:08:54.915Z,94639.31
2023-01-11T18:11:26.056Z,94634.44
2023-01-11T18:13:58.202Z,94640.78
2023-01-11T18:16:26.412Z,94631.47
2023-01-11T18:18:55.532Z,94644.19
2023-01-11T18:21:40.616Z,94639.28
2023-01-11T18:24:34.153Z,94637.63
2023-01-11T18:27:24.968Z,94635.81
2023-01-11T18:29:55.900Z,94645.28
2023-01-11T18:32:24.517Z,94624.78
2023-01-11T18:34:54.932Z,94638.56
2023-01-11T18:37:23.522Z,94644.97
2023-01-11T18:39:53.423Z,94634.53
2023-01-11T18:42:25.801Z,94641.53
2023-01-11T18:44:55.278Z,94630.88
2023-01-11T18:47:25.278Z,94630.44
2023-01-11T18:49:54.295Z,94654.53
2023-01-11T18:52:27.539Z,94647.81
2023-01-11T18:54:56.161Z,94649.22
2023-01-11T18:57:25.033Z,94664.72
2023-01-11T18:59:54.778Z,94649.28
2023-01-11T19:02:26.189Z,94662.28
2023-01-11T19:04:57.595Z,94666.34
2023-01-11T19:07:26.985Z,94671.84
2023-01-11T19:09:56.030Z,94669.66
2023-01-11T19:12:24.519Z,94659.41
2023-01-11T19:14:52.496Z,94666.63
2023-01-11T19:17:22.131Z,94658.84
2023-01-11T19:19:50.275Z,94663.16
2023-01-11T19:22:18.210Z,94653.03
2023-01-11T19:24:46.243Z,94673.28
2023-01-11T19:27:14.382Z,94691.22
2023-01-11T19:29:42.388Z,94692.03
2023-01-11T19:32:10.774Z,94687.50
2023-01-11T19:34:41.110Z,94697.03
2023-01-11T19:37:09.067Z,94700.91
2023-01-11T19:39:37.291Z,94693.81
2023-01-11T19:42:05.754Z,94702.47
2023-01-11T19:44:35.332Z,94700.09
2023-01-11T19:47:11.202Z,94705.78
2023-01-11T19:49:42.525Z,94701.28
2023-01-11T19:52:14.000Z,94713.88
2023-01-11T19:54:43.595Z,94704.78
2023-01-11T19:57:12.375Z,94712.16
2023-01-11T19:59:40.378Z,94709.13
2023-01-11T20:02:09.276Z,94715.44
2023-01-11T20:04:37.316Z,94705.19
2023-01-11T20:07:06.839Z,94710.44
2023-01-11T20:09:37.557Z,94717.69
2023-01-11T20:12:06.397Z,94714.66
2023-01-11T20:14:35.071Z,94722.69
2023-01-11T20:17:03.404Z,94704.28
2023-01-11T20:19:31.360Z,94708.03
2023-01-11T20:21:59.350Z,94708.84
2023-01-11T20:24:30.136Z,94715.47
2023-01-11T20:26:59.328Z,94703.25
2023-01-11T20:29:27.567Z,94713.97
2023-01-11T20:31:55.790Z,94719.34
2023-01-11T20:34:27.418Z,94717.81
2023-01-11T20:36:55.361Z,94707.66
2023-01-11T20:39:24.214Z,94718.28
2023-01-11T20:41:54.082Z,94722.59
2023-01-11T20:44:24.142Z,94709.09
2023-01-11T20:46:53.475Z,94718.63
2023-01-11T20:49:24.454Z,94720.81
2023-01-11T20:51:52.471Z,94717.22
2023-01-11T20:54:22.084Z,94719.19
2023-01-11T20:56:51.385Z,94715.56
2023-01-11T20:59:20.813Z,94703.22
2023-01-11T21:01:49.360Z,94678.97
2023-01-11T21:04:19.103Z,94708.47
2023-01-11T21:06:49.039Z,94711.84
2023-01-11T21:09:18.928Z,94707.50
2023-01-11T21:11:53.109Z,94703.44
2023-01-11T21:14:23.073Z,94705.66
2023-01-11T21:16:54.898Z,94706.22
2023-01-11T21:19:23.792Z,94690.38
2023-01-11T21:21:51.849Z,94706.44
2023-01-11T21:24:20.977Z,94706.22
2023-01-11T21:26:49.482Z,94698.72
2023-01-11T21:29:17.440Z,94694.19
2023-01-11T21:31:46.818Z,94702.72
2023-01-11T21:34:15.249Z,94685.84
2023-01-11T21:36:44.956Z,94697.69
2023-01-11T21:39:15.205Z,94703.56
2023-01-11T21:41:56.157Z,94707.41
2023-01-11T21:44:27.336Z,94696.22
2023-01-11T21:46:56.803Z,94700.53
2023-01-11T21:49:25.323Z,94708.59
2023-01-11T21:51:53.656Z,94702.06
2023-01-11T21:54:21.756Z,94689.50
2023-01-11T21:56:50.464Z,94705.56
2023-01-11T21:59:18.569Z,94701.63
2023-01-11T22:01:49.382Z,94709.31
2023-01-11T22:04:21.775Z,94706.41
2023-01-11T22:06:54.862Z,94701.88
2023-01-11T22:09:26.209Z,94703.25
2023-01-11T22:11:54.164Z,94709.19
2023-01-11T22:14:22.574Z,94699.06
2023-01-11T22:16:51.006Z,94702.06
2023-01-11T22:19:20.426Z,94706.03
2023-01-11T22:21:48.495Z,94698.00
2023-01-11T22:24:17.530Z,94693.13
2023-01-11T22:26:45.605Z,94684.25
2023-01-11T22:29:15.291Z,94690.09
2023-01-11T22:31:46.683Z,94682.94
2023-01-11T22:34:15.987Z,94685.50
2023-01-11T22:36:45.980Z,94684.84
2023-01-11T22:39:15.643Z,94686.22
2023-01-11T22:41:45.663Z,94678.34
2023-01-11T22:44:14.727Z,94685.44
2023-01-11T22:46:43.492Z,94685.63
2023-01-11T22:49:14.299Z,94682.03
2023-01-11T22:51:43.034Z,94687.59
2023-01-11T22:54:12.919Z,94672.81
2023-01-11T22:56:41.527Z,94680.16
2023-01-11T22:59:09.726Z,94669.13
2023-01-11T23:01:39.264Z,94673.09
2023-01-11T23:04:08.782Z,94672.97
2023-01-11T23:06:38.792Z,94687.16
2023-01-11T23:09:07.829Z,94695.69
2023-01-11T23:11:57.898Z,94685.31
2023-01-11T23:14:29.233Z,94693.59
2023-01-11T23:16:57.598Z,94686.94
2023-01-11T23:19:25.503Z,94682.41
2023-01-11T23:21:53.457Z,94670.19
2023-01-11T23:24:21.444Z,94681.22
2023-01-11T23:26:51.204Z,94683.09
2023-01-11T23:29:19.208Z,94686.47
2023-01-11T23:31:47.439Z,94686.25
2023-01-11T23:34:15.499Z,94677.16
2023-01-11T23:36:44.415Z,94667.97
2023-01-11T23:39:14.930Z,94670.06
2023-01-11T23:42:00.739Z,94670.88
2023-01-11T23:44:30.136Z,94680.75
2023-01-11T23:47:15.584Z,94674.97
2023-01-11T23:49:44.344Z,94686.25
2023-01-11T23:52:12.773Z,94685.56
2023-01-11T23:54:41.300Z,94687.41
2023-01-11T23:57:09.415Z,94677.63
2023-01-11T23:59:39.047Z,94689.28
